sensor_id;sensor_type;location;lat;lon;timestamp;pressure;altitude;pressure_sealevel;temperature;humidity
23321;BME280;33376;51.306;4.752;2023-01-27T00:00:52;102565.72;;;6.01;nan
23321;BME280;33376;51.306;4.752;2023-01-27T00:03:18;102561.31;;;6.04;nan
23321;BME280;33376;51.306;4.752;2023-01-27T00:05:44;102566.63;;;6.00;nan
23321;BME280;33376;51.306;4.752;2023-01-27T00:08:09;102557.72;;;6.13;nan
23321;BME280;33376;51.306;4.752;2023-01-27T00:10:35;102564.00;;;5.98;nan
23321;BME280;33376;51.306;4.752;2023-01-27T00:13:00;102563.06;;;6.02;nan
23321;BME280;33376;51.306;4.752;2023-01-27T00:15:44;102549.88;;;6.04;nan
23321;BME280;33376;51.306;4.752;2023-01-27T00:18:09;102551.66;;;6.00;nan
23321;BME280;33376;51.306;4.752;2023-01-27T00:20:34;102553.50;;;5.95;nan
23321;BME280;33376;51.306;4.752;2023-01-27T00:23:19;102554.34;;;5.97;nan
23321;BME280;33376;51.306;4.752;2023-01-27T00:26:04;102557.03;;;5.91;nan
23321;BME280;33376;51.306;4.752;2023-01-27T00:28:34;102561.44;;;5.86;nan
23321;BME280;33376;51.306;4.752;2023-01-27T00:30:59;102560.59;;;5.85;nan
23321;BME280;33376;51.306;4.752;2023-01-27T00:33:25;102565.84;;;5.88;nan
23321;BME280;33376;51.306;4.752;2023-01-27T00:36:12;102565.84;;;5.82;nan
23321;BME280;33376;51.306;4.752;2023-01-27T00:38:36;102537.78;;;5.83;nan
23321;BME280;33376;51.306;4.752;2023-01-27T00:41:05;102546.56;;;5.85;nan
23321;BME280;33376;51.306;4.752;2023-01-27T00:43:45;102540.47;;;5.75;nan
23321;BME280;33376;51.306;4.752;2023-01-27T00:46:11;102541.31;;;5.77;nan
23321;BME280;33376;51.306;4.752;2023-01-27T00:48:37;102542.22;;;5.73;nan
23321;BME280;33376;51.306;4.752;2023-01-27T00:51:02;102559.75;;;5.73;nan
23321;BME280;33376;51.306;4.752;2023-01-27T00:53:27;102554.47;;;5.77;nan
23321;BME280;33376;51.306;4.752;2023-01-27T00:55:52;102548.34;;;5.75;nan
23321;BME280;33376;51.306;4.752;2023-01-27T00:58:18;102551.88;;;5.71;nan
23321;BME280;33376;51.306;4.752;2023-01-27T01:00:43;102543.09;;;5.74;nan
23321;BME280;33376;51.306;4.752;2023-01-27T01:03:08;102544.78;;;5.79;nan
23321;BME280;33376;51.306;4.752;2023-01-27T01:05:34;102541.31;;;5.79;nan
23321;BME280;33376;51.306;4.752;2023-01-27T01:07:59;102540.41;;;5.80;nan
23321;BME280;33376;51.306;4.752;2023-01-27T01:10:24;102548.38;;;5.74;nan
23321;BME280;33376;51.306;4.752;2023-01-27T01:12:49;102555.34;;;5.76;nan
23321;BME280;33376;51.306;4.752;2023-01-27T01:15:15;102546.69;;;5.61;nan
23321;BME280;33376;51.306;4.752;2023-01-27T01:17:40;102550.22;;;5.57;nan
23321;BME280;33376;51.306;4.752;2023-01-27T01:20:05;102552.06;;;5.50;nan
23321;BME280;33376;51.306;4.752;2023-01-27T01:22:31;102551.16;;;5.50;nan
23321;BME280;33376;51.306;4.752;2023-01-27T01:24:57;102545.91;;;5.51;nan
23321;BME280;33376;51.306;4.752;2023-01-27T01:27:22;102553.81;;;5.50;nan
23321;BME280;33376;51.306;4.752;2023-01-27T01:29:47;102544.16;;;5.50;nan
23321;BME280;33376;51.306;4.752;2023-01-27T01:32:12;102545.91;;;5.50;nan
23321;BME280;33376;51.306;4.752;2023-01-27T01:34:38;102551.16;;;5.51;nan
23321;BME280;33376;51.306;4.752;2023-01-27T01:37:03;102558.19;;;5.48;nan
23321;BME280;33376;51.306;4.752;2023-01-27T01:39:29;102550.31;;;5.45;nan
23321;BME280;33376;51.306;4.752;2023-01-27T01:41:54;102553.81;;;5.48;nan
23321;BME280;33376;51.306;4.752;2023-01-27T01:44:20;102549.41;;;5.49;nan
23321;BME280;33376;51.306;4.752;2023-01-27T01:46:46;102543.28;;;5.50;nan
23321;BME280;33376;51.306;4.752;2023-01-27T01:49:11;102553.81;;;5.50;nan
23321;BME280;33376;51.306;4.752;2023-01-27T01:51:41;102548.53;;;5.51;nan
23321;BME280;33376;51.306;4.752;2023-01-27T01:54:17;102545.91;;;5.51;nan
23321;BME280;33376;51.306;4.752;2023-01-27T01:59:19;102553.81;;;5.48;nan
23321;BME280;33376;51.306;4.752;2023-01-27T02:01:46;102553.84;;;5.45;nan
23321;BME280;33376;51.306;4.752;2023-01-27T02:04:13;102549.41;;;5.50;nan
23321;BME280;33376;51.306;4.752;2023-01-27T02:06:41;102548.56;;;5.48;nan
23321;BME280;33376;51.306;4.752;2023-01-27T02:09:08;102559.06;;;5.51;nan
23321;BME280;33376;51.306;4.752;2023-01-27T02:11:34;102563.47;;;5.45;nan
23321;BME280;33376;51.306;4.752;2023-01-27T02:13:59;102572.25;;;5.47;nan
23321;BME280;33376;51.306;4.752;2023-01-27T02:16:26;102573.06;;;5.49;nan
23321;BME280;33376;51.306;4.752;2023-01-27T02:18:51;102569.59;;;5.47;nan
23321;BME280;33376;51.306;4.752;2023-01-27T02:21:16;102571.34;;;5.46;nan
23321;BME280;33376;51.306;4.752;2023-01-27T02:26:12;102580.13;;;5.48;nan
23321;BME280;33376;51.306;4.752;2023-01-27T02:28:39;102571.38;;;5.43;nan
23321;BME280;33376;51.306;4.752;2023-01-27T02:31:04;102584.59;;;5.34;nan
23321;BME280;33376;51.306;4.752;2023-01-27T02:33:30;102582.81;;;5.41;nan
23321;BME280;33376;51.306;4.752;2023-01-27T02:36:02;102582.78;;;5.39;nan
23321;BME280;33376;51.306;4.752;2023-01-27T02:38:30;102594.25;;;5.28;nan
23321;BME280;33376;51.306;4.752;2023-01-27T02:40:58;102580.22;;;5.27;nan
23321;BME280;33376;51.306;4.752;2023-01-27T02:43:25;102591.66;;;5.20;nan
23321;BME280;33376;51.306;4.752;2023-01-27T02:45:50;102587.28;;;5.19;nan
23321;BME280;33376;51.306;4.752;2023-01-27T02:48:16;102577.69;;;5.14;nan
23321;BME280;33376;51.306;4.752;2023-01-27T02:50:41;102569.78;;;5.12;nan
23321;BME280;33376;51.306;4.752;2023-01-27T02:53:06;102584.72;;;5.09;nan
23321;BME280;33376;51.306;4.752;2023-01-27T02:55:32;102589.97;;;5.01;nan
23321;BME280;33376;51.306;4.752;2023-01-27T02:57:57;102584.72;;;5.01;nan
23321;BME280;33376;51.306;4.752;2023-01-27T03:00:22;102589.13;;;5.02;nan
23321;BME280;33376;51.306;4.752;2023-01-27T03:02:48;102581.25;;;4.95;nan
23321;BME280;33376;51.306;4.752;2023-01-27T03:05:13;102593.50;;;4.99;nan
23321;BME280;33376;51.306;4.752;2023-01-27T03:07:39;102596.19;;;4.90;nan
23321;BME280;33376;51.306;4.752;2023-01-27T03:10:04;102604.94;;;4.90;nan
23321;BME280;33376;51.306;4.752;2023-01-27T03:12:30;102605.81;;;4.89;nan
23321;BME280;33376;51.306;4.752;2023-01-27T03:14:55;102612.84;;;4.84;nan
23321;BME280;33376;51.306;4.752;2023-01-27T03:17:39;102610.19;;;4.86;nan
23321;BME280;33376;51.306;4.752;2023-01-27T03:20:23;102606.69;;;4.90;nan
23321;BME280;33376;51.306;4.752;2023-01-27T03:22:48;102611.94;;;4.87;nan
23321;BME280;33376;51.306;4.752;2023-01-27T03:25:14;102612.84;;;4.80;nan
23321;BME280;33376;51.306;4.752;2023-01-27T03:27:39;102614.59;;;4.82;nan
23321;BME280;33376;51.306;4.752;2023-01-27T03:30:05;102614.59;;;4.84;nan
23321;BME280;33376;51.306;4.752;2023-01-27T03:32:31;102616.38;;;4.79;nan
23321;BME280;33376;51.306;4.752;2023-01-27T03:34:56;102611.97;;;4.79;nan
23321;BME280;33376;51.306;4.752;2023-01-27T03:37:23;102617.28;;;4.67;nan
23321;BME280;33376;51.306;4.752;2023-01-27T03:40:07;102624.25;;;4.68;nan
23321;BME280;33376;51.306;4.752;2023-01-27T03:42:51;102626.88;;;4.71;nan
23321;BME280;33376;51.306;4.752;2023-01-27T03:45:36;102633.06;;;4.63;nan
23321;BME280;33376;51.306;4.752;2023-01-27T03:48:19;102628.66;;;4.72;nan
23321;BME280;33376;51.306;4.752;2023-01-27T03:50:45;102635.66;;;4.67;nan
23321;BME280;33376;51.306;4.752;2023-01-27T03:53:16;102644.41;;;4.66;nan
23321;BME280;33376;51.306;4.752;2023-01-27T03:55:42;102644.41;;;4.74;nan
23321;BME280;33376;51.306;4.752;2023-01-27T03:58:14;102650.53;;;4.65;nan
23321;BME280;33376;51.306;4.752;2023-01-27T04:00:54;102656.66;;;4.58;nan
23321;BME280;33376;51.306;4.752;2023-01-27T04:03:20;102651.41;;;4.58;nan
23321;BME280;33376;51.306;4.752;2023-01-27T04:06:05;102649.69;;;4.59;nan
23321;BME280;33376;51.306;4.752;2023-01-27T04:08:49;102654.06;;;4.55;nan
23321;BME280;33376;51.306;4.752;2023-01-27T04:11:14;102658.44;;;4.51;nan
23321;BME280;33376;51.306;4.752;2023-01-27T04:14:06;102649.69;;;4.51;nan
23321;BME280;33376;51.306;4.752;2023-01-27T04:16:32;102664.56;;;4.52;nan
23321;BME280;33376;51.306;4.752;2023-01-27T04:18:58;102673.34;;;4.46;nan
23321;BME280;33376;51.306;4.752;2023-01-27T04:21:23;102664.56;;;4.49;nan
23321;BME280;33376;51.306;4.752;2023-01-27T04:23:49;102670.72;;;4.48;nan
23321;BME280;33376;51.306;4.752;2023-01-27T04:26:15;102675.97;;;4.51;nan
23321;BME280;33376;51.306;4.752;2023-01-27T04:28:40;102670.72;;;4.46;nan
23321;BME280;33376;51.306;4.752;2023-01-27T04:31:05;102678.56;;;4.36;nan
23321;BME280;33376;51.306;4.752;2023-01-27T04:33:31;102680.34;;;4.35;nan
23321;BME280;33376;51.306;4.752;2023-01-27T04:36:01;102682.09;;;4.27;nan
23321;BME280;33376;51.306;4.752;2023-01-27T04:38:29;102683.84;;;4.34;nan
23321;BME280;33376;51.306;4.752;2023-01-27T04:40:58;102684.72;;;4.33;nan
23321;BME280;33376;51.306;4.752;2023-01-27T04:43:24;102686.47;;;4.28;nan
23321;BME280;33376;51.306;4.752;2023-01-27T04:45:50;102693.44;;;4.26;nan
23321;BME280;33376;51.306;4.752;2023-01-27T04:48:17;102696.97;;;4.22;nan
23321;BME280;33376;51.306;4.752;2023-01-27T04:50:43;102710.94;;;4.20;nan
23321;BME280;33376;51.306;4.752;2023-01-27T04:53:08;102703.09;;;4.35;nan
23321;BME280;33376;51.306;4.752;2023-01-27T04:55:33;102712.72;;;4.24;nan
23321;BME280;33376;51.306;4.752;2023-01-27T04:57:59;102712.72;;;4.25;nan
23321;BME280;33376;51.306;4.752;2023-01-27T05:00:24;102714.47;;;4.23;nan
23321;BME280;33376;51.306;4.752;2023-01-27T05:02:49;102716.22;;;4.26;nan
23321;BME280;33376;51.306;4.752;2023-01-27T05:05:14;102730.22;;;4.23;nan
23321;BME280;33376;51.306;4.752;2023-01-27T05:07:40;102725.84;;;4.28;nan
23321;BME280;33376;51.306;4.752;2023-01-27T05:10:05;102724.06;;;4.23;nan
23321;BME280;33376;51.306;4.752;2023-01-27T05:12:31;102738.09;;;4.19;nan
23321;BME280;33376;51.306;4.752;2023-01-27T05:14:58;102742.44;;;4.18;nan
23321;BME280;33376;51.306;4.752;2023-01-27T05:17:23;102742.44;;;4.21;nan
23321;BME280;33376;51.306;4.752;2023-01-27T05:19:49;102743.34;;;4.25;nan
23321;BME280;33376;51.306;4.752;2023-01-27T05:22:14;102759.09;;;4.22;nan
23321;BME280;33376;51.306;4.752;2023-01-27T05:24:39;102763.44;;;4.21;nan
23321;BME280;33376;51.306;4.752;2023-01-27T05:27:05;102758.22;;;4.20;nan
23321;BME280;33376;51.306;4.752;2023-01-27T05:29:30;102760.81;;;4.18;nan
23321;BME280;33376;51.306;4.752;2023-01-27T05:31:55;102769.59;;;4.26;nan
23321;BME280;33376;51.306;4.752;2023-01-27T05:34:21;102768.69;;;4.18;nan
23321;BME280;33376;51.306;4.752;2023-01-27T05:36:47;102769.59;;;4.22;nan
23321;BME280;33376;51.306;4.752;2023-01-27T05:39:12;102779.19;;;4.15;nan
23321;BME280;33376;51.306;4.752;2023-01-27T05:41:37;102768.69;;;4.17;nan
23321;BME280;33376;51.306;4.752;2023-01-27T05:44:03;102780.09;;;4.14;nan
23321;BME280;33376;51.306;4.752;2023-01-27T05:46:29;102788.84;;;4.18;nan
23321;BME280;33376;51.306;4.752;2023-01-27T05:48:55;102789.72;;;4.18;nan
23321;BME280;33376;51.306;4.752;2023-01-27T05:51:21;102795.84;;;4.13;nan
23321;BME280;33376;51.306;4.752;2023-01-27T05:53:47;102800.19;;;4.12;nan
23321;BME280;33376;51.306;4.752;2023-01-27T05:56:14;102808.97;;;4.17;nan
23321;BME280;33376;51.306;4.752;2023-01-27T05:58:40;102815.09;;;4.19;nan
23321;BME280;33376;51.306;4.752;2023-01-27T06:01:08;102810.69;;;4.11;nan
23321;BME280;33376;51.306;4.752;2023-01-27T06:03:35;102811.59;;;4.17;nan
23321;BME280;33376;51.306;4.752;2023-01-27T06:06:00;102815.06;;;4.12;nan
23321;BME280;33376;51.306;4.752;2023-01-27T06:08:25;102815.97;;;4.18;nan
23321;BME280;33376;51.306;4.752;2023-01-27T06:10:51;102812.47;;;4.18;nan
23321;BME280;33376;51.306;4.752;2023-01-27T06:13:17;102805.44;;;4.12;nan
23321;BME280;33376;51.306;4.752;2023-01-27T06:15:43;102815.06;;;4.15;nan
23321;BME280;33376;51.306;4.752;2023-01-27T06:18:08;102821.22;;;4.17;nan
23321;BME280;33376;51.306;4.752;2023-01-27T06:20:35;102823.84;;;4.17;nan
23321;BME280;33376;51.306;4.752;2023-01-27T06:23:00;102826.47;;;4.21;nan
23321;BME280;33376;51.306;4.752;2023-01-27T06:25:25;102821.22;;;4.17;nan
23321;BME280;33376;51.306;4.752;2023-01-27T06:27:54;102830.88;;;4.21;nan
23321;BME280;33376;51.306;4.752;2023-01-27T06:30:20;102812.50;;;4.30;nan
23321;BME280;33376;51.306;4.752;2023-01-27T06:32:45;102815.13;;;4.24;nan
23321;BME280;33376;51.306;4.752;2023-01-27T06:35:10;102808.97;;;4.29;nan
23321;BME280;33376;51.306;4.752;2023-01-27T06:37:35;102807.25;;;4.34;nan
23321;BME280;33376;51.306;4.752;2023-01-27T06:40:01;102799.38;;;4.39;nan
23321;BME280;33376;51.306;4.752;2023-01-27T06:42:27;102797.63;;;4.36;nan
23321;BME280;33376;51.306;4.752;2023-01-27T06:44:52;102792.38;;;4.32;nan
23321;BME280;33376;51.306;4.752;2023-01-27T06:47:17;102787.97;;;4.29;nan
23321;BME280;33376;51.306;4.752;2023-01-27T06:49:42;102792.34;;;4.24;nan
23321;BME280;33376;51.306;4.752;2023-01-27T06:52:07;102798.47;;;4.25;nan
23321;BME280;33376;51.306;4.752;2023-01-27T06:54:33;102790.59;;;4.20;nan
23321;BME280;33376;51.306;4.752;2023-01-27T06:56:58;102800.22;;;4.20;nan
23321;BME280;33376;51.306;4.752;2023-01-27T06:59:23;102800.22;;;4.21;nan
23321;BME280;33376;51.306;4.752;2023-01-27T07:01:49;102802.00;;;4.28;nan
23321;BME280;33376;51.306;4.752;2023-01-27T07:04:14;102807.25;;;4.28;nan
23321;BME280;33376;51.306;4.752;2023-01-27T07:06:39;102811.59;;;4.20;nan
23321;BME280;33376;51.306;4.752;2023-01-27T07:09:04;102814.22;;;4.16;nan
23321;BME280;33376;51.306;4.752;2023-01-27T07:11:30;102820.34;;;4.18;nan
23321;BME280;33376;51.306;4.752;2023-01-27T07:13:55;102823.84;;;4.17;nan
23321;BME280;33376;51.306;4.752;2023-01-27T07:16:20;102811.59;;;4.22;nan
23321;BME280;33376;51.306;4.752;2023-01-27T07:18:45;102803.72;;;4.29;nan
23321;BME280;33376;51.306;4.752;2023-01-27T07:21:11;102808.97;;;4.31;nan
23321;BME280;33376;51.306;4.752;2023-01-27T07:23:36;102807.25;;;4.28;nan
23321;BME280;33376;51.306;4.752;2023-01-27T07:26:02;102810.75;;;4.30;nan
23321;BME280;33376;51.306;4.752;2023-01-27T07:28:27;102807.25;;;4.28;nan
23321;BME280;33376;51.306;4.752;2023-01-27T07:30:52;102805.50;;;4.32;nan
23321;BME280;33376;51.306;4.752;2023-01-27T07:33:18;102807.25;;;4.34;nan
23321;BME280;33376;51.306;4.752;2023-01-27T07:35:43;102799.38;;;4.33;nan
23321;BME280;33376;51.306;4.752;2023-01-27T07:38:08;102800.25;;;4.35;nan
23321;BME280;33376;51.306;4.752;2023-01-27T07:40:34;102793.25;;;4.35;nan
23321;BME280;33376;51.306;4.752;2023-01-27T07:43:00;102793.25;;;4.35;nan
23321;BME280;33376;51.306;4.752;2023-01-27T07:45:25;102789.75;;;4.30;nan
23321;BME280;33376;51.306;4.752;2023-01-27T07:47:51;102799.38;;;4.31;nan
23321;BME280;33376;51.306;4.752;2023-01-27T07:50:16;102803.72;;;4.28;nan
23321;BME280;33376;51.306;4.752;2023-01-27T07:52:41;102805.50;;;4.33;nan
23321;BME280;33376;51.306;4.752;2023-01-27T07:55:07;102804.63;;;4.31;nan
23321;BME280;33376;51.306;4.752;2023-01-27T07:57:32;102816.00;;;4.30;nan
23321;BME280;33376;51.306;4.752;2023-01-27T07:59:57;102808.13;;;4.35;nan
23321;BME280;33376;51.306;4.752;2023-01-27T08:02:23;102810.75;;;4.38;nan
23321;BME280;33376;51.306;4.752;2023-01-27T08:04:49;102813.41;;;4.47;nan
23321;BME280;33376;51.306;4.752;2023-01-27T08:07:15;102812.53;;;4.43;nan
23321;BME280;33376;51.306;4.752;2023-01-27T08:09:40;102810.75;;;4.39;nan
23321;BME280;33376;51.306;4.752;2023-01-27T08:12:05;102814.28;;;4.49;nan
23321;BME280;33376;51.306;4.752;2023-01-27T08:14:30;102811.66;;;4.50;nan
23321;BME280;33376;51.306;4.752;2023-01-27T08:16:56;102802.94;;;4.53;nan
23321;BME280;33376;51.306;4.752;2023-01-27T08:19:21;102791.53;;;4.53;nan
23321;BME280;33376;51.306;4.752;2023-01-27T08:21:46;102799.41;;;4.57;nan
23321;BME280;33376;51.306;4.752;2023-01-27T08:24:11;102799.41;;;4.57;nan
23321;BME280;33376;51.306;4.752;2023-01-27T08:26:37;102799.41;;;4.63;nan
23321;BME280;33376;51.306;4.752;2023-01-27T08:29:02;102800.28;;;4.62;nan
23321;BME280;33376;51.306;4.752;2023-01-27T08:31:27;102795.03;;;4.68;nan
23321;BME280;33376;51.306;4.752;2023-01-27T08:33:52;102787.16;;;4.73;nan
23321;BME280;33376;51.306;4.752;2023-01-27T08:36:18;102781.03;;;4.71;nan
23321;BME280;33376;51.306;4.752;2023-01-27T08:38:44;102783.69;;;4.71;nan
23321;BME280;33376;51.306;4.752;2023-01-27T08:41:11;102766.13;;;4.74;nan
23321;BME280;33376;51.306;4.752;2023-01-27T08:43:36;102771.41;;;4.82;nan
23321;BME280;33376;51.306;4.752;2023-01-27T08:46:02;102770.50;;;4.84;nan
23321;BME280;33376;51.306;4.752;2023-01-27T08:48:27;102762.63;;;4.92;nan
23321;BME280;33376;51.306;4.752;2023-01-27T08:50:53;102761.78;;;4.90;nan
23321;BME280;33376;51.306;4.752;2023-01-27T08:53:18;102760.88;;;4.91;nan
23321;BME280;33376;51.306;4.752;2023-01-27T08:55:45;102760.88;;;4.95;nan
23321;BME280;33376;51.306;4.752;2023-01-27T08:58:11;102742.47;;;4.98;nan
23321;BME280;33376;51.306;4.752;2023-01-27T09:00:36;102750.34;;;4.98;nan
23321;BME280;33376;51.306;4.752;2023-01-27T09:03:01;102748.59;;;5.02;nan
23321;BME280;33376;51.306;4.752;2023-01-27T09:05:26;102740.69;;;5.09;nan
23321;BME280;33376;51.306;4.752;2023-01-27T09:07:52;102735.47;;;5.00;nan
23321;BME280;33376;51.306;4.752;2023-01-27T09:10:18;102738.97;;;5.02;nan
23321;BME280;33376;51.306;4.752;2023-01-27T09:12:43;102742.44;;;5.03;nan
23321;BME280;33376;51.306;4.752;2023-01-27T09:15:09;102735.44;;;5.08;nan
23321;BME280;33376;51.306;4.752;2023-01-27T09:17:34;102745.09;;;5.06;nan
23321;BME280;33376;51.306;4.752;2023-01-27T09:20:00;102748.59;;;5.02;nan
23321;BME280;33376;51.306;4.752;2023-01-27T09:22:25;102747.72;;;4.98;nan
23321;BME280;33376;51.306;4.752;2023-01-27T09:24:51;102749.47;;;5.05;nan
23321;BME280;33376;51.306;4.752;2023-01-27T09:27:16;102751.22;;;4.99;nan
23321;BME280;33376;51.306;4.752;2023-01-27T09:29:41;102754.75;;;4.98;nan
23321;BME280;33376;51.306;4.752;2023-01-27T09:32:06;102752.97;;;5.04;nan
23321;BME280;33376;51.306;4.752;2023-01-27T09:34:33;102754.72;;;5.05;nan
23321;BME280;33376;51.306;4.752;2023-01-27T09:37:00;102752.13;;;5.01;nan
23321;BME280;33376;51.306;4.752;2023-01-27T09:39:26;102738.94;;;5.10;nan
23321;BME280;33376;51.306;4.752;2023-01-27T09:47:02;102753.84;;;5.03;nan
23321;BME280;33376;51.306;4.752;2023-01-27T10:02:11;102745.09;;;5.10;nan
23321;BME280;33376;51.306;4.752;2023-01-27T10:04:51;102744.22;;;5.08;nan
23321;BME280;33376;51.306;4.752;2023-01-27T10:07:27;102752.97;;;5.04;nan
23321;BME280;33376;51.306;4.752;2023-01-27T10:27:37;102750.31;;;5.22;nan
23321;BME280;33376;51.306;4.752;2023-01-27T10:30:13;102741.56;;;5.23;nan
23321;BME280;33376;51.306;4.752;2023-01-27T10:35:25;102744.19;;;5.23;nan
23321;BME280;33376;51.306;4.752;2023-01-27T10:37:56;102729.22;;;5.31;nan
23321;BME280;33376;51.306;4.752;2023-01-27T10:43:48;102732.75;;;5.27;nan
23321;BME280;33376;51.306;4.752;2023-01-27T10:46:02;102731.03;;;5.26;nan
23321;BME280;33376;51.306;4.752;2023-01-27T10:48:49;102738.06;;;5.18;nan
23321;BME280;33376;51.306;4.752;2023-01-27T10:53:58;102735.38;;;5.32;nan
23321;BME280;33376;51.306;4.752;2023-01-27T10:56:32;102731.91;;;5.22;nan
23321;BME280;33376;51.306;4.752;2023-01-27T11:02:31;102738.00;;;5.29;nan
23321;BME280;33376;51.306;4.752;2023-01-27T11:06:54;102753.81;;;5.27;nan
23321;BME280;33376;51.306;4.752;2023-01-27T11:09:23;102756.44;;;5.27;nan
23321;BME280;33376;51.306;4.752;2023-01-27T11:11:49;102755.56;;;5.21;nan
23321;BME280;33376;51.306;4.752;2023-01-27T11:14:16;102755.59;;;5.13;nan
23321;BME280;33376;51.306;4.752;2023-01-27T11:17:29;102756.47;;;5.17;nan
23321;BME280;33376;51.306;4.752;2023-01-27T11:22:01;102747.69;;;5.18;nan
23321;BME280;33376;51.306;4.752;2023-01-27T11:24:31;102740.69;;;5.12;nan
23321;BME280;33376;51.306;4.752;2023-01-27T11:27:06;102758.22;;;5.13;nan
23321;BME280;33376;51.306;4.752;2023-01-27T11:29:57;102746.78;;;5.35;nan
23321;BME280;33376;51.306;4.752;2023-01-27T11:35:08;102752.88;;;5.45;nan
23321;BME280;33376;51.306;4.752;2023-01-27T11:37:35;102751.19;;;5.26;nan
23321;BME280;33376;51.306;4.752;2023-01-27T11:40:01;102745.88;;;5.36;nan
23321;BME280;33376;51.306;4.752;2023-01-27T11:42:32;102748.56;;;5.21;nan
23321;BME280;33376;51.306;4.752;2023-01-27T11:44:58;102755.59;;;5.12;nan
23321;BME280;33376;51.306;4.752;2023-01-27T11:47:26;102753.84;;;5.18;nan
23321;BME280;33376;51.306;4.752;2023-01-27T11:49:52;102754.69;;;5.14;nan
23321;BME280;33376;51.306;4.752;2023-01-27T11:52:19;102750.31;;;5.21;nan
23321;BME280;33376;51.306;4.752;2023-01-27T11:55:00;102750.34;;;5.09;nan
23321;BME280;33376;51.306;4.752;2023-01-27T11:57:28;102757.34;;;5.10;nan
23321;BME280;33376;51.306;4.752;2023-01-27T12:00:17;102759.09;;;5.06;nan
23321;BME280;33376;51.306;4.752;2023-01-27T12:02:43;102760.84;;;5.03;nan
23321;BME280;33376;51.306;4.752;2023-01-27T12:05:18;102757.34;;;5.05;nan
23321;BME280;33376;51.306;4.752;2023-01-27T12:07:48;102763.50;;;5.12;nan
23321;BME280;33376;51.306;4.752;2023-01-27T12:10:26;102761.72;;;5.11;nan
23321;BME280;33376;51.306;4.752;2023-01-27T12:12:53;102763.50;;;5.09;nan
23321;BME280;33376;51.306;4.752;2023-01-27T12:15:19;102773.94;;;5.28;nan
23321;BME280;33376;51.306;4.752;2023-01-27T12:17:45;102767.00;;;5.02;nan
23321;BME280;33376;51.306;4.752;2023-01-27T12:22:46;102780.13;;;5.03;nan
23321;BME280;33376;51.306;4.752;2023-01-27T12:25:16;102769.66;;;4.93;nan
23321;BME280;33376;51.306;4.752;2023-01-27T12:28:02;102771.41;;;4.89;nan
23321;BME280;33376;51.306;4.752;2023-01-27T12:30:29;102773.13;;;4.95;nan
23321;BME280;33376;51.306;4.752;2023-01-27T12:32:56;102765.25;;;4.92;nan
23321;BME280;33376;51.306;4.752;2023-01-27T12:35:33;102776.63;;;4.97;nan
23321;BME280;33376;51.306;4.752;2023-01-27T12:38:03;102760.00;;;4.90;nan
23321;BME280;33376;51.306;4.752;2023-01-27T12:40:28;102771.38;;;4.98;nan
23321;BME280;33376;51.306;4.752;2023-01-27T12:45:26;102759.13;;;4.97;nan
23321;BME280;33376;51.306;4.752;2023-01-27T12:50:24;102755.63;;;4.92;nan
23321;BME280;33376;51.306;4.752;2023-01-27T12:55:28;102753.88;;;4.99;nan
23321;BME280;33376;51.306;4.752;2023-01-27T12:57:53;102750.34;;;5.00;nan
23321;BME280;33376;51.306;4.752;2023-01-27T13:00:19;102756.47;;;5.02;nan
23321;BME280;33376;51.306;4.752;2023-01-27T13:02:44;102758.22;;;5.01;nan
23321;BME280;33376;51.306;4.752;2023-01-27T13:05:13;102754.75;;;4.96;nan
23321;BME280;33376;51.306;4.752;2023-01-27T13:07:43;102752.97;;;4.97;nan
23321;BME280;33376;51.306;4.752;2023-01-27T13:10:18;102766.13;;;4.98;nan
23321;BME280;33376;51.306;4.752;2023-01-27T13:12:48;102755.59;;;4.97;nan
23321;BME280;33376;51.306;4.752;2023-01-27T13:15:15;102760.88;;;4.89;nan
23321;BME280;33376;51.306;4.752;2023-01-27T13:17:44;102759.13;;;4.90;nan
23321;BME280;33376;51.306;4.752;2023-01-27T13:22:55;102758.25;;;4.85;nan
23321;BME280;33376;51.306;4.752;2023-01-27T13:25:27;102757.38;;;4.87;nan
23321;BME280;33376;51.306;4.752;2023-01-27T13:27:54;102773.16;;;4.80;nan
23321;BME280;33376;51.306;4.752;2023-01-27T13:30:32;102767.03;;;4.93;nan
23321;BME280;33376;51.306;4.752;2023-01-27T13:33:24;102766.13;;;4.95;nan
23321;BME280;33376;51.306;4.752;2023-01-27T13:35:50;102769.66;;;4.94;nan
23321;BME280;33376;51.306;4.752;2023-01-27T13:38:20;102770.53;;;4.96;nan
23321;BME280;33376;51.306;4.752;2023-01-27T13:40:48;102767.03;;;4.75;nan
23321;BME280;33376;51.306;4.752;2023-01-27T13:43:19;102768.78;;;4.79;nan
23321;BME280;33376;51.306;4.752;2023-01-27T13:45:52;102767.91;;;4.71;nan
23321;BME280;33376;51.306;4.752;2023-01-27T13:50:48;102784.53;;;4.71;nan
23321;BME280;33376;51.306;4.752;2023-01-27T13:53:15;102774.03;;;4.82;nan
23321;BME280;33376;51.306;4.752;2023-01-27T13:58:09;102770.50;;;4.87;nan
23321;BME280;33376;51.306;4.752;2023-01-27T14:00:44;102779.28;;;4.86;nan
23321;BME280;33376;51.306;4.752;2023-01-27T14:08:24;102777.53;;;4.81;nan
23321;BME280;33376;51.306;4.752;2023-01-27T14:11:09;102782.78;;;4.81;nan
23321;BME280;33376;51.306;4.752;2023-01-27T14:16:24;102776.63;;;4.77;nan
23321;BME280;33376;51.306;4.752;2023-01-27T14:19:15;102778.41;;;4.83;nan
23321;BME280;33376;51.306;4.752;2023-01-27T14:21:44;102781.91;;;4.80;nan
23321;BME280;33376;51.306;4.752;2023-01-27T14:37:15;102799.44;;;4.83;nan
23321;BME280;33376;51.306;4.752;2023-01-27T14:44:53;102799.44;;;4.86;nan
23321;BME280;33376;51.306;4.752;2023-01-27T14:50:05;102812.56;;;4.77;nan
23321;BME280;33376;51.306;4.752;2023-01-27T15:10:22;102825.72;;;4.74;nan
23321;BME280;33376;51.306;4.752;2023-01-27T15:23:26;102831.81;;;4.65;nan
23321;BME280;33376;51.306;4.752;2023-01-27T15:25:57;102843.22;;;4.75;nan
23321;BME280;33376;51.306;4.752;2023-01-27T15:28:28;102831.81;;;4.74;nan
23321;BME280;33376;51.306;4.752;2023-01-27T15:33:54;102840.59;;;4.82;nan
23321;BME280;33376;51.306;4.752;2023-01-27T15:41:23;102840.59;;;4.79;nan
23321;BME280;33376;51.306;4.752;2023-01-27T15:44:02;102834.44;;;4.77;nan
23321;BME280;33376;51.306;4.752;2023-01-27T15:46:29;102838.84;;;4.72;nan
23321;BME280;33376;51.306;4.752;2023-01-27T15:48:56;102830.97;;;4.71;nan